createdAt,value
2019-03-27T00:00:13.388Z,3.60
2019-03-27T00:02:42.201Z,3.70
2019-03-27T00:05:11.183Z,3.60
2019-03-27T00:07:40.022Z,4.40
2019-03-27T00:10:09.285Z,3.72
2019-03-27T00:12:38.521Z,3.75
2019-03-27T00:15:13.271Z,5.33
2019-03-27T00:17:40.637Z,3.47
2019-03-27T00:20:10.879Z,3.12
2019-03-27T00:22:39.618Z,3.15
2019-03-27T00:25:09.885Z,2.90
2019-03-27T00:27:38.661Z,3.02
2019-03-27T00:30:08.996Z,3.50
2019-03-27T00:32:37.800Z,3.55
2019-03-27T00:35:07.270Z,3.37
2019-03-27T00:37:36.077Z,3.10
2019-03-27T00:40:07.264Z,3.35
2019-03-27T00:42:36.038Z,3.00
2019-03-27T00:45:08.790Z,2.90
2019-03-27T00:47:37.684Z,3.08
2019-03-27T00:50:08.596Z,3.25
2019-03-27T00:52:37.440Z,2.98
2019-03-27T00:55:07.334Z,3.00
2019-03-27T00:57:36.069Z,3.35
2019-03-27T01:00:34.782Z,2.75
2019-03-27T01:03:03.572Z,3.35
2019-03-27T01:05:32.329Z,3.50
2019-03-27T01:08:01.149Z,3.20
2019-03-27T01:10:29.978Z,3.30
2019-03-27T01:12:59.071Z,3.27
2019-03-27T01:15:39.116Z,3.00
2019-03-27T01:17:58.360Z,3.12
2019-03-27T01:20:27.120Z,3.90
2019-03-27T01:22:55.954Z,3.40
2019-03-27T01:25:24.688Z,3.75
2019-03-27T01:27:53.454Z,3.40
2019-03-27T01:30:22.216Z,3.42
2019-03-27T01:32:50.960Z,3.87
2019-03-27T01:35:19.741Z,3.30
2019-03-27T01:37:48.510Z,3.80
2019-03-27T01:40:17.307Z,3.35
2019-03-27T01:42:46.101Z,3.40
2019-03-27T01:45:14.851Z,5.05
2019-03-27T01:47:43.709Z,3.22
2019-03-27T01:50:12.720Z,3.92
2019-03-27T01:52:41.590Z,4.47
2019-03-27T01:55:10.380Z,3.47
2019-03-27T01:57:39.211Z,3.85
2019-03-27T02:00:09.032Z,3.67
2019-03-27T02:02:37.824Z,4.65
2019-03-27T02:05:07.126Z,3.37
2019-03-27T02:07:35.972Z,3.58
2019-03-27T02:10:06.997Z,4.00
2019-03-27T02:12:35.757Z,3.70
2019-03-27T02:15:07.246Z,5.78
2019-03-27T02:17:36.111Z,4.70
2019-03-27T02:20:06.834Z,4.37
2019-03-27T02:22:35.604Z,3.80
2019-03-27T02:25:05.160Z,4.10
2019-03-27T02:27:33.908Z,4.40
2019-03-27T02:30:02.657Z,6.90
2019-03-27T02:32:31.506Z,4.47
2019-03-27T02:35:00.526Z,5.10
2019-03-27T02:37:29.396Z,4.28
2019-03-27T02:39:58.121Z,4.35
2019-03-27T02:42:26.912Z,4.28
2019-03-27T02:44:55.794Z,4.67
2019-03-27T02:47:24.581Z,4.20
2019-03-27T02:49:53.415Z,4.78
2019-03-27T02:52:22.251Z,5.90
2019-03-27T02:54:51.197Z,5.47
2019-03-27T02:57:20.030Z,5.80
2019-03-27T02:59:49.073Z,5.30
2019-03-27T03:02:17.874Z,6.25
2019-03-27T03:04:46.683Z,5.25
2019-03-27T03:07:15.485Z,5.80
2019-03-27T03:09:44.324Z,6.80
2019-03-27T03:12:13.103Z,6.20
2019-03-27T03:14:41.882Z,5.67
2019-03-27T03:17:11.002Z,6.92
2019-03-27T03:19:39.783Z,8.15
2019-03-27T03:22:08.547Z,8.23
2019-03-27T03:24:37.450Z,7.83
2019-03-27T03:27:06.257Z,9.18
2019-03-27T03:29:35.024Z,8.53
2019-03-27T03:32:03.879Z,8.45
2019-03-27T03:34:32.690Z,8.03
2019-03-27T03:37:01.570Z,7.95
2019-03-27T03:39:30.386Z,7.83
2019-03-27T03:41:59.226Z,8.33
2019-03-27T03:44:28.060Z,8.38
2019-03-27T03:47:00.224Z,9.33
2019-03-27T03:49:27.418Z,8.05
2019-03-27T03:51:56.374Z,7.97
2019-03-27T03:54:25.143Z,9.05
2019-03-27T03:56:56.263Z,7.95
2019-03-27T03:59:26.867Z,8.38
2019-03-27T04:01:55.998Z,8.58
2019-03-27T04:04:24.923Z,8.90
2019-03-27T04:06:53.740Z,9.45
2019-03-27T04:09:22.485Z,8.30
2019-03-27T04:11:51.273Z,7.83
2019-03-27T04:14:20.390Z,9.35
2019-03-27T04:16:49.181Z,8.30
2019-03-27T04:19:17.951Z,9.08
2019-03-27T04:21:46.721Z,8.70
2019-03-27T04:24:15.501Z,9.25
2019-03-27T04:26:44.353Z,8.78
2019-03-27T04:29:13.174Z,8.10
2019-03-27T04:31:41.964Z,10.03
2019-03-27T04:34:10.803Z,8.33
2019-03-27T04:36:39.617Z,9.03
2019-03-27T04:39:08.382Z,8.28
2019-03-27T04:41:37.257Z,8.63
2019-03-27T04:44:06.103Z,8.68
2019-03-27T04:46:34.916Z,8.45
2019-03-27T04:49:07.533Z,8.03
2019-03-27T04:51:34.257Z,8.50
2019-03-27T04:54:03.042Z,7.90
2019-03-27T04:56:31.782Z,8.38
2019-03-27T04:59:00.552Z,8.15
2019-03-27T05:01:29.321Z,7.83
2019-03-27T05:03:58.271Z,8.90
2019-03-27T05:06:27.067Z,31.30
2019-03-27T05:08:55.889Z,8.18
2019-03-27T05:11:24.738Z,7.75
2019-03-27T05:13:53.525Z,7.62
2019-03-27T05:16:22.276Z,9.28
2019-03-27T05:18:51.038Z,8.63
2019-03-27T05:21:20.079Z,7.20
2019-03-27T05:23:48.881Z,8.40
2019-03-27T05:26:17.653Z,8.45
2019-03-27T05:28:46.425Z,7.55
2019-03-27T05:31:15.235Z,8.00
2019-03-27T05:33:44.003Z,8.33
2019-03-27T05:36:12.756Z,10.05
2019-03-27T05:38:41.565Z,10.78
2019-03-27T05:41:10.302Z,8.43
2019-03-27T05:43:39.105Z,8.38
2019-03-27T05:46:07.929Z,9.15
2019-03-27T05:48:36.681Z,8.70
2019-03-27T05:51:05.462Z,7.70
2019-03-27T05:53:34.456Z,8.95
2019-03-27T05:56:03.226Z,8.68
2019-03-27T05:58:32.056Z,8.45
2019-03-27T06:01:00.837Z,8.45
2019-03-27T06:03:29.644Z,7.78
2019-03-27T06:05:58.402Z,8.60
2019-03-27T06:08:27.254Z,9.48
2019-03-27T06:10:56.003Z,9.20
2019-03-27T06:13:24.777Z,8.18
2019-03-27T06:15:53.856Z,8.73
2019-03-27T06:18:22.630Z,9.35
2019-03-27T06:20:51.372Z,9.10
2019-03-27T06:23:20.128Z,9.85
2019-03-27T06:25:49.008Z,8.65
2019-03-27T06:28:17.856Z,10.10
2019-03-27T06:30:46.860Z,9.15
2019-03-27T06:33:15.608Z,9.30
2019-03-27T06:35:44.394Z,9.93
2019-03-27T06:38:13.148Z,10.10
2019-03-27T06:40:41.929Z,10.50
2019-03-27T06:43:10.701Z,9.33
2019-03-27T06:45:39.431Z,8.95
2019-03-27T06:48:08.226Z,9.65
2019-03-27T06:50:37.039Z,11.68
2019-03-27T06:53:05.792Z,8.98
2019-03-27T06:55:34.587Z,9.60
2019-03-27T06:58:03.386Z,9.20
2019-03-27T07:00:36.527Z,10.25
2019-03-27T07:03:06.353Z,10.93
2019-03-27T07:05:35.098Z,10.63
2019-03-27T07:08:03.964Z,10.00
2019-03-27T07:10:32.747Z,10.32
2019-03-27T07:13:01.491Z,9.73
2019-03-27T07:15:30.283Z,10.65
2019-03-27T07:17:59.086Z,10.88
2019-03-27T07:20:27.960Z,11.85
2019-03-27T07:22:56.751Z,12.00
2019-03-27T07:25:25.630Z,9.80
2019-03-27T07:27:54.447Z,11.57
2019-03-27T07:30:23.276Z,9.00
2019-03-27T07:32:52.060Z,10.82
2019-03-27T07:35:20.822Z,10.15
2019-03-27T07:37:49.923Z,9.58
2019-03-27T07:40:18.761Z,10.58
2019-03-27T07:42:47.533Z,8.40
2019-03-27T07:45:16.265Z,9.38
2019-03-27T07:47:48.031Z,10.43
2019-03-27T07:50:17.778Z,7.15
2019-03-27T07:52:46.300Z,8.00
2019-03-27T07:55:19.547Z,7.90
2019-03-27T07:57:45.917Z,6.72
2019-03-27T08:00:17.914Z,8.15
2019-03-27T08:02:46.655Z,6.37
2019-03-27T08:05:15.768Z,6.25
2019-03-27T08:07:44.522Z,6.30
2019-03-27T08:10:13.367Z,5.75
2019-03-27T08:12:42.205Z,6.60
2019-03-27T08:15:12.346Z,5.72
2019-03-27T08:17:41.105Z,7.00
2019-03-27T08:20:11.249Z,4.12
2019-03-27T08:22:42.053Z,5.85
2019-03-27T08:25:11.334Z,5.40
2019-03-27T08:27:40.212Z,5.05
2019-03-27T08:30:13.860Z,6.62
2019-03-27T08:32:42.665Z,4.87
2019-03-27T08:35:11.892Z,4.95
2019-03-27T08:37:40.725Z,5.37
2019-03-27T08:40:10.653Z,8.10
2019-03-27T08:42:39.501Z,4.70
2019-03-27T08:45:08.818Z,5.20
2019-03-27T08:47:37.646Z,5.42
2019-03-27T08:50:08.285Z,5.97
2019-03-27T08:52:37.457Z,4.58
2019-03-27T08:55:07.334Z,5.37
2019-03-27T08:57:36.141Z,5.30
2019-03-27T09:00:07.369Z,5.58
2019-03-27T09:02:36.506Z,5.17
2019-03-27T09:05:08.991Z,4.50
2019-03-27T09:07:37.801Z,5.92
2019-03-27T09:10:07.590Z,6.67
2019-03-27T09:12:36.597Z,5.35
2019-03-27T09:15:08.348Z,5.70
2019-03-27T09:17:37.836Z,5.10
2019-03-27T09:20:07.596Z,5.90
2019-03-27T09:22:36.371Z,5.90
2019-03-27T09:25:06.291Z,5.47
2019-03-27T09:27:35.077Z,5.55
2019-03-27T09:30:05.808Z,6.15
2019-03-27T09:32:34.603Z,5.45
2019-03-27T09:35:03.457Z,5.97
2019-03-27T09:37:32.283Z,9.15
2019-03-27T09:40:01.142Z,4.97
2019-03-27T09:42:29.906Z,5.37
2019-03-27T09:44:58.633Z,4.80
2019-03-27T09:47:27.373Z,4.75
2019-03-27T09:49:56.123Z,4.70
2019-03-27T09:52:24.900Z,5.80
2019-03-27T09:54:53.785Z,4.75
2019-03-27T09:57:22.627Z,4.55
2019-03-27T09:59:51.529Z,4.47
2019-03-27T10:02:20.313Z,4.55
2019-03-27T10:04:49.117Z,4.22
2019-03-27T10:07:17.916Z,5.20
2019-03-27T10:09:50.096Z,6.12
2019-03-27T10:12:17.195Z,5.58
2019-03-27T10:14:47.549Z,4.90
2019-03-27T10:17:16.615Z,5.45
2019-03-27T10:19:45.386Z,5.30
2019-03-27T10:22:15.202Z,6.45
2019-03-27T10:24:43.936Z,4.87
2019-03-27T10:27:14.189Z,5.40
2019-03-27T10:29:42.948Z,5.40
2019-03-27T10:32:11.744Z,4.87
2019-03-27T10:34:40.512Z,4.65
2019-03-27T10:37:09.281Z,4.85
2019-03-27T10:39:38.100Z,5.25
2019-03-27T10:42:06.870Z,4.67
2019-03-27T10:44:35.629Z,4.72
2019-03-27T10:47:05.006Z,4.72
2019-03-27T10:49:34.506Z,5.70
2019-03-27T10:52:03.414Z,4.92
2019-03-27T10:54:32.149Z,5.00
2019-03-27T10:57:00.971Z,5.35
2019-03-27T10:59:29.708Z,4.45
2019-03-27T11:01:58.477Z,5.03
2019-03-27T11:04:27.305Z,4.40
2019-03-27T11:06:56.041Z,4.70
2019-03-27T11:09:24.806Z,5.35
2019-03-27T11:11:53.597Z,6.05
2019-03-27T11:14:22.450Z,5.28
2019-03-27T11:16:51.237Z,4.55
2019-03-27T11:19:20.006Z,5.53
2019-03-27T11:21:48.756Z,5.20
2019-03-27T11:24:17.500Z,5.03
2019-03-27T11:26:46.274Z,4.72
2019-03-27T11:29:15.105Z,5.37
2019-03-27T11:31:43.886Z,5.58
2019-03-27T11:34:12.608Z,5.20
2019-03-27T11:36:41.385Z,5.00
2019-03-27T11:39:10.813Z,4.80
2019-03-27T11:41:39.879Z,5.03
2019-03-27T11:44:08.709Z,5.75
2019-03-27T11:46:37.835Z,6.05
2019-03-27T11:49:06.577Z,7.17
2019-03-27T11:51:35.347Z,7.75
2019-03-27T11:54:04.203Z,7.65
2019-03-27T11:56:33.007Z,6.65
2019-03-27T11:59:01.855Z,13.30
2019-03-27T12:01:39.599Z,10.05
2019-03-27T12:04:01.113Z,6.95
2019-03-27T12:06:29.893Z,10.95
2019-03-27T12:08:58.979Z,6.72
2019-03-27T12:11:27.724Z,6.42
2019-03-27T12:13:56.473Z,7.10
2019-03-27T12:16:25.246Z,5.78
2019-03-27T12:18:54.089Z,5.83
2019-03-27T12:21:23.076Z,6.47
2019-03-27T12:23:51.847Z,6.00
2019-03-27T12:26:20.625Z,5.20
2019-03-27T12:28:49.433Z,5.65
2019-03-27T12:31:18.208Z,6.40
2019-03-27T12:33:47.068Z,32.58
2019-03-27T12:36:15.804Z,7.15
2019-03-27T12:38:44.548Z,5.67
2019-03-27T12:41:13.563Z,4.80
2019-03-27T12:43:42.334Z,4.83
2019-03-27T12:46:11.132Z,5.45
2019-03-27T12:48:40.187Z,5.25
2019-03-27T12:51:13.186Z,4.42
2019-03-27T12:53:39.492Z,5.47
2019-03-27T12:56:08.315Z,6.35
2019-03-27T12:58:37.057Z,4.92
2019-03-27T13:01:05.912Z,4.95
2019-03-27T13:03:34.760Z,4.78
2019-03-27T13:06:03.691Z,5.22
2019-03-27T13:08:32.791Z,5.62
2019-03-27T13:11:01.806Z,5.85
2019-03-27T13:13:30.649Z,6.03
2019-03-27T13:15:59.455Z,4.85
2019-03-27T13:18:28.241Z,5.65
2019-03-27T13:20:57.010Z,5.12
2019-03-27T13:23:25.745Z,4.78
2019-03-27T13:25:54.535Z,5.08
2019-03-27T13:28:23.348Z,4.10
2019-03-27T13:30:52.123Z,4.83
2019-03-27T13:33:20.862Z,4.03
2019-03-27T13:35:49.657Z,4.78
2019-03-27T13:38:18.485Z,4.15
2019-03-27T13:40:47.259Z,4.37
2019-03-27T13:43:16.078Z,3.95
2019-03-27T13:45:45.291Z,3.90
2019-03-27T13:48:14.108Z,4.30
2019-03-27T13:50:42.855Z,3.50
2019-03-27T13:53:11.632Z,4.67
2019-03-27T13:55:40.441Z,4.33
2019-03-27T13:58:09.205Z,3.90
2019-03-27T14:00:38.052Z,4.30
2019-03-27T14:03:06.897Z,4.62
2019-03-27T14:05:35.646Z,3.87
2019-03-27T14:08:04.577Z,4.53
2019-03-27T14:10:33.519Z,4.60
2019-03-27T14:13:02.345Z,4.45
2019-03-27T14:15:31.102Z,4.10
2019-03-27T14:17:59.935Z,4.37
2019-03-27T14:20:28.697Z,7.87
2019-03-27T14:22:57.546Z,6.03
2019-03-27T14:25:26.414Z,4.60
2019-03-27T14:27:55.191Z,5.00
2019-03-27T14:30:46.534Z,6.33
2019-03-27T14:33:15.274Z,5.10
2019-03-27T14:35:44.068Z,5.00
2019-03-27T14:38:12.889Z,3.87
2019-03-27T14:40:41.682Z,4.08
2019-03-27T14:43:10.420Z,5.58
2019-03-27T14:45:39.160Z,4.28
2019-03-27T14:48:07.926Z,3.58
2019-03-27T14:50:36.744Z,3.58
2019-03-27T14:53:05.474Z,3.15
2019-03-27T14:55:34.229Z,4.45
2019-03-27T14:58:03.000Z,4.00
2019-03-27T15:00:31.809Z,3.70
2019-03-27T15:03:00.589Z,3.77
2019-03-27T15:05:29.328Z,3.90
2019-03-27T15:07:58.102Z,3.90
2019-03-27T15:10:26.846Z,4.65
2019-03-27T15:12:55.589Z,4.17
2019-03-27T15:15:24.382Z,4.30
2019-03-27T15:17:53.191Z,5.42
2019-03-27T15:20:21.936Z,4.60
2019-03-27T15:22:50.963Z,4.50
2019-03-27T15:25:19.718Z,4.85
2019-03-27T15:27:48.496Z,4.50
2019-03-27T15:30:17.354Z,6.60
2019-03-27T15:32:46.142Z,4.42
2019-03-27T15:35:14.629Z,4.40
2019-03-27T15:37:43.220Z,4.33
2019-03-27T15:40:12.654Z,4.60
2019-03-27T15:42:41.481Z,3.90
2019-03-27T15:45:10.544Z,4.00
2019-03-27T15:47:39.098Z,4.63
2019-03-27T15:50:08.194Z,5.00
2019-03-27T15:52:37.230Z,4.33
2019-03-27T15:55:06.068Z,3.80
2019-03-27T15:57:34.813Z,3.52
2019-03-27T16:00:05.138Z,3.80
2019-03-27T16:02:33.951Z,4.42
2019-03-27T16:05:02.745Z,4.62
2019-03-27T16:07:31.599Z,4.50
2019-03-27T16:10:00.491Z,4.35
2019-03-27T16:12:29.269Z,4.00
2019-03-27T16:14:58.057Z,4.20
2019-03-27T16:17:26.870Z,4.17
2019-03-27T16:19:55.650Z,9.20
2019-03-27T16:22:24.483Z,10.90
2019-03-27T16:24:53.272Z,4.47
2019-03-27T16:27:21.996Z,5.28
2019-03-27T16:29:50.778Z,4.30
2019-03-27T16:32:19.580Z,4.75
2019-03-27T16:34:48.352Z,4.70
2019-03-27T16:37:17.193Z,3.90
2019-03-27T16:39:45.970Z,4.65
2019-03-27T16:42:14.844Z,5.03
2019-03-27T16:44:43.624Z,5.12
2019-03-27T16:47:12.949Z,6.47
2019-03-27T16:49:41.714Z,5.80
2019-03-27T16:52:10.490Z,5.35
2019-03-27T16:54:39.215Z,4.90
2019-03-27T16:57:07.981Z,6.10
2019-03-27T16:59:36.896Z,5.37
2019-03-27T17:02:05.873Z,6.28
2019-03-27T17:04:34.634Z,5.67
2019-03-27T17:07:03.412Z,7.08
2019-03-27T17:09:32.614Z,5.65
2019-03-27T17:12:01.591Z,5.72
2019-03-27T17:14:30.422Z,7.08
2019-03-27T17:16:59.278Z,5.65
2019-03-27T17:19:28.028Z,6.85
2019-03-27T17:21:56.804Z,6.42
2019-03-27T17:24:25.560Z,6.05
2019-03-27T17:26:54.459Z,5.62
2019-03-27T17:29:23.286Z,6.35
2019-03-27T17:31:52.132Z,6.30
2019-03-27T17:34:20.953Z,5.55
2019-03-27T17:36:49.768Z,8.05
2019-03-27T17:39:18.674Z,6.58
2019-03-27T17:41:47.459Z,6.70
2019-03-27T17:44:16.307Z,7.30
2019-03-27T17:46:45.214Z,6.17
2019-03-27T17:49:13.972Z,7.03
2019-03-27T17:51:42.749Z,8.00
2019-03-27T17:54:20.359Z,7.30
2019-03-27T17:56:42.260Z,7.50
2019-03-27T17:59:11.342Z,7.33
2019-03-27T18:01:40.184Z,7.30
2019-03-27T18:04:08.955Z,6.87
2019-03-27T18:06:37.764Z,7.03
2019-03-27T18:09:07.712Z,10.55
2019-03-27T18:11:36.476Z,7.95
2019-03-27T18:14:05.314Z,7.97
2019-03-27T18:16:34.055Z,5.75
2019-03-27T18:19:02.930Z,5.25
2019-03-27T18:21:31.764Z,5.30
2019-03-27T18:24:00.551Z,7.28
2019-03-27T18:26:29.312Z,6.42
2019-03-27T18:28:58.098Z,5.10
2019-03-27T18:31:27.208Z,5.30
2019-03-27T18:33:56.055Z,6.10
2019-03-27T18:36:24.886Z,8.55
2019-03-27T18:38:53.626Z,5.40
2019-03-27T18:41:22.404Z,5.83
2019-03-27T18:43:51.142Z,5.70
2019-03-27T18:46:19.940Z,5.53
2019-03-27T18:48:48.760Z,5.60
2019-03-27T18:51:17.550Z,6.05
2019-03-27T18:53:58.860Z,6.05
2019-03-27T18:56:17.097Z,4.92
2019-03-27T18:58:46.671Z,5.60
2019-03-27T19:01:15.527Z,5.15
2019-03-27T19:03:44.330Z,6.10
2019-03-27T19:06:13.081Z,5.40
2019-03-27T19:08:42.164Z,6.00
2019-03-27T19:11:10.922Z,5.45
2019-03-27T19:13:39.962Z,5.60
2019-03-27T19:16:08.743Z,6.10
2019-03-27T19:18:37.572Z,6.55
2019-03-27T19:21:06.430Z,5.58
2019-03-27T19:23:35.257Z,6.25
2019-03-27T19:26:04.092Z,32.73
2019-03-27T19:28:32.854Z,6.22
2019-03-27T19:31:01.757Z,5.50
2019-03-27T19:33:30.500Z,5.65
2019-03-27T19:35:59.384Z,5.50
2019-03-27T19:38:28.214Z,5.12
2019-03-27T19:40:56.983Z,5.15
2019-03-27T19:43:25.722Z,5.20
2019-03-27T19:45:57.373Z,5.55
2019-03-27T19:48:25.183Z,5.17
2019-03-27T19:50:54.051Z,4.83
2019-03-27T19:53:22.876Z,5.55
2019-03-27T19:55:51.673Z,5.45
2019-03-27T19:58:20.502Z,5.55
2019-03-27T20:00:49.375Z,5.30
2019-03-27T20:03:18.234Z,5.67
2019-03-27T20:05:47.064Z,5.28
2019-03-27T20:08:15.850Z,6.25
2019-03-27T20:10:44.618Z,6.80
2019-03-27T20:13:13.540Z,5.62
2019-03-27T20:15:42.365Z,5.40
2019-03-27T20:18:11.398Z,6.90
2019-03-27T20:20:40.151Z,5.85
2019-03-27T20:23:14.841Z,6.65
2019-03-27T20:25:39.438Z,6.30
2019-03-27T20:28:08.528Z,7.53
2019-03-27T20:30:37.268Z,7.92
2019-03-27T20:33:06.314Z,7.65
2019-03-27T20:35:35.108Z,7.05
2019-03-27T20:38:03.868Z,8.35
2019-03-27T20:40:32.636Z,7.17
2019-03-27T20:43:01.420Z,8.10
2019-03-27T20:45:30.274Z,7.95
2019-03-27T20:47:59.028Z,7.55
2019-03-27T20:50:27.805Z,7.35
2019-03-27T20:52:56.596Z,8.58
2019-03-27T20:55:30.450Z,8.40
2019-03-27T20:57:56.134Z,8.13
2019-03-27T21:00:24.909Z,9.00
2019-03-27T21:02:53.679Z,9.08
2019-03-27T21:05:22.555Z,10.00
2019-03-27T21:07:51.320Z,10.65
2019-03-27T21:10:20.148Z,10.63
2019-03-27T21:12:48.949Z,11.03
2019-03-27T21:15:17.717Z,8.73
2019-03-27T21:17:46.486Z,10.55
2019-03-27T21:20:15.423Z,10.60
2019-03-27T21:22:44.263Z,11.05
2019-03-27T21:25:13.105Z,9.75
2019-03-27T21:27:43.512Z,10.82
2019-03-27T21:30:12.625Z,10.95
2019-03-27T21:32:41.429Z,11.03
2019-03-27T21:35:10.441Z,12.18
2019-03-27T21:37:39.272Z,12.33
2019-03-27T21:40:08.564Z,12.05
2019-03-27T21:42:37.348Z,14.10
2019-03-27T21:45:09.644Z,14.00
2019-03-27T21:47:38.430Z,15.65
2019-03-27T21:50:08.051Z,14.40
2019-03-27T21:52:36.906Z,14.20
2019-03-27T21:55:06.960Z,14.40
2019-03-27T21:57:35.714Z,14.38
2019-03-27T22:00:06.265Z,14.13
2019-03-27T22:02:35.123Z,13.90
2019-03-27T22:05:05.238Z,14.25
2019-03-27T22:07:34.065Z,14.35
2019-03-27T22:10:03.221Z,13.83
2019-03-27T22:12:32.061Z,14.35
2019-03-27T22:15:01.179Z,13.80
2019-03-27T22:17:29.966Z,13.53
2019-03-27T22:19:58.713Z,12.45
2019-03-27T22:22:27.476Z,12.40
2019-03-27T22:24:56.291Z,13.93
2019-03-27T22:27:25.057Z,14.15
2019-03-27T22:29:53.841Z,13.20
2019-03-27T22:32:22.759Z,14.00
2019-03-27T22:34:51.686Z,12.15
2019-03-27T22:37:20.457Z,11.70
2019-03-27T22:39:49.244Z,12.40
2019-03-27T22:42:18.008Z,11.78
2019-03-27T22:44:46.775Z,12.75
2019-03-27T22:47:15.554Z,12.53
2019-03-27T22:49:44.347Z,12.50
2019-03-27T22:52:13.146Z,11.45
2019-03-27T22:54:41.886Z,12.93
2019-03-27T22:57:10.663Z,11.15
2019-03-27T22:59:39.458Z,11.08
2019-03-27T23:02:08.378Z,11.70
2019-03-27T23:04:37.163Z,18.17
2019-03-27T23:07:05.934Z,17.75
2019-03-27T23:09:34.782Z,12.88
2019-03-27T23:12:04.057Z,11.05
2019-03-27T23:14:32.791Z,16.23
2019-03-27T23:17:01.555Z,11.20
2019-03-27T23:19:30.400Z,12.13
2019-03-27T23:21:59.157Z,12.37
2019-03-27T23:24:27.980Z,10.93
2019-03-27T23:26:56.721Z,16.87
2019-03-27T23:29:25.510Z,10.65
2019-03-27T23:31:54.277Z,11.43
2019-03-27T23:34:23.102Z,11.20
2019-03-27T23:36:51.962Z,9.95
2019-03-27T23:39:20.953Z,9.13
2019-03-27T23:41:49.713Z,9.88
2019-03-27T23:44:18.526Z,10.53
2019-03-27T23:46:47.283Z,8.90
2019-03-27T23:49:16.049Z,9.08
2019-03-27T23:51:45.183Z,9.08
2019-03-27T23:54:13.970Z,9.05
2019-03-27T23:56:42.811Z,10.38
2019-03-27T23:59:11.660Z,8.85
